Time;durP1;ratioP1;P1;durP2;ratioP2;P2;SDS_P1;SDS_P2;PMS_P1;PMS_P2;Temp;Humidity;BMP_temperature;BMP_pressure;BME280_temperature;BME280_humidity;BME280_pressure;Samples;Min_cycle;Max_cycle;Signal;HPM_P1;HPM_P2
2021/10/28 00:14:30;;;;;;;10.73;6.63;;;11.00;99.90;;;;;;5062133;28;20059;-43
2021/10/28 00:16:58;;;;;;;10.57;7.30;;;11.00;99.90;;;;;;5060063;28;20064;-43
2021/10/28 00:19:26;;;;;;;7.85;6.55;;;11.00;99.90;;;;;;5064684;28;20482;-43
2021/10/28 00:21:51;;;;;;;7.43;6.53;;;10.90;99.90;;;;;;5057641;28;20025;-43
2021/10/28 00:24:17;;;;;;;7.28;6.55;;;10.90;99.90;;;;;;5065751;28;20086;-44
2021/10/28 00:26:45;;;;;;;7.90;6.45;;;10.90;99.90;;;;;;5055824;28;20113;-44
2021/10/28 00:29:15;;;;;;;7.95;6.65;;;10.80;99.90;;;;;;5065293;28;20550;-43
2021/10/28 00:31:41;;;;;;;6.93;6.22;;;10.80;99.90;;;;;;5055826;28;20024;-43
2021/10/28 00:34:09;;;;;;;8.80;6.82;;;10.80;99.90;;;;;;5066433;28;20029;-43
2021/10/28 00:36:38;;;;;;;7.22;6.40;;;10.80;99.90;;;;;;5059438;28;20108;-44
2021/10/28 00:39:06;;;;;;;7.78;6.40;;;10.80;99.90;;;;;;5047356;28;20029;-43
2021/10/28 00:41:31;;;;;;;10.35;6.35;;;10.80;99.90;;;;;;5058728;28;20100;-44
2021/10/28 00:44:00;;;;;;;8.13;6.95;;;10.70;99.90;;;;;;5047427;28;20731;-43
2021/10/28 00:46:28;;;;;;;7.18;6.20;;;10.70;99.90;;;;;;5058842;28;20028;-42
2021/10/28 00:48:54;;;;;;;10.60;6.82;;;10.70;99.90;;;;;;5026746;28;20033;-43
2021/10/28 00:51:22;;;;;;;10.13;6.70;;;10.70;99.90;;;;;;5051133;28;20054;-44
2021/10/28 00:53:50;;;;;;;7.40;6.32;;;10.60;99.90;;;;;;5048767;28;20396;-42
2021/10/28 00:56:16;;;;;;;9.77;6.90;;;10.60;99.90;;;;;;5053832;28;20374;-42
2021/10/28 00:58:42;;;;;;;9.32;7.03;;;10.60;99.90;;;;;;5050884;28;20028;-43
2021/10/28 01:01:08;;;;;;;9.05;6.65;;;10.60;99.90;;;;;;5052474;28;20495;-43
2021/10/28 01:03:35;;;;;;;9.40;7.15;;;10.60;99.90;;;;;;5052928;28;20072;-43
2021/10/28 01:06:03;;;;;;;8.73;6.57;;;10.60;99.90;;;;;;5049616;28;20496;-43
2021/10/28 01:08:30;;;;;;;6.78;6.05;;;10.60;99.90;;;;;;5055222;28;20106;-42
2021/10/28 01:10:56;;;;;;;8.23;7.10;;;10.60;99.90;;;;;;5047898;28;20021;-43
2021/10/28 01:13:23;;;;;;;8.35;6.80;;;10.60;99.90;;;;;;5057953;28;20027;-43
2021/10/28 01:15:52;;;;;;;8.07;6.53;;;10.60;99.90;;;;;;5047591;28;20029;-43
2021/10/28 01:18:17;;;;;;;7.78;6.53;;;10.50;99.90;;;;;;5057113;28;20067;-42
2021/10/28 01:20:46;;;;;;;8.27;6.88;;;10.50;99.90;;;;;;5046294;28;20484;-43
2021/10/28 01:23:12;;;;;;;10.25;6.88;;;10.40;99.90;;;;;;5053179;28;20079;-43
2021/10/28 01:25:39;;;;;;;7.20;6.30;;;10.50;99.90;;;;;;5066635;28;20380;-42
2021/10/28 01:28:14;;;;;;;8.68;6.90;;;10.40;99.90;;;;;;5053962;28;20021;-43
2021/10/28 01:30:39;;;;;;;7.88;6.60;;;10.40;99.90;;;;;;5065266;28;20036;-43
2021/10/28 01:33:08;;;;;;;9.70;7.57;;;10.40;99.90;;;;;;5053777;28;20120;-43
2021/10/28 01:35:33;;;;;;;9.52;6.70;;;10.40;99.90;;;;;;5066002;28;20478;-43
2021/10/28 01:37:59;;;;;;;7.78;6.38;;;10.40;99.90;;;;;;5054672;28;20033;-43
2021/10/28 01:40:25;;;;;;;7.68;6.20;;;10.40;99.90;;;;;;5064590;28;20082;-44
2021/10/28 01:42:51;;;;;;;6.72;5.65;;;10.30;99.90;;;;;;5057607;28;20037;-43
2021/10/28 01:45:18;;;;;;;8.05;7.03;;;10.30;99.90;;;;;;5061733;28;20031;-43
2021/10/28 01:47:44;;;;;;;10.20;6.50;;;10.30;99.90;;;;;;5059477;28;20049;-43
2021/10/28 01:50:10;;;;;;;7.20;6.35;;;10.30;99.90;;;;;;5057339;28;20052;-43
2021/10/28 01:52:38;;;;;;;8.48;6.38;;;10.30;99.90;;;;;;5048455;28;20350;-43
2021/10/28 01:55:11;;;;;;;9.40;6.97;;;10.30;99.90;;;;;;5055131;28;20056;-44
2021/10/28 01:57:39;;;;;;;12.00;7.07;;;10.30;99.90;;;;;;5047945;28;20388;-44
2021/10/28 02:00:13;;;;;;;7.43;6.43;;;10.30;99.90;;;;;;5056277;28;20028;-44
2021/10/28 02:02:41;;;;;;;7.65;6.90;;;10.30;99.90;;;;;;5046624;28;20025;-44
2021/10/28 02:05:08;;;;;;;8.13;6.35;;;10.20;99.90;;;;;;5057757;28;20029;-42
2021/10/28 02:07:34;;;;;;;7.65;6.20;;;10.20;99.90;;;;;;5046685;28;20039;-43
2021/10/28 02:09:59;;;;;;;10.40;6.30;;;10.20;99.90;;;;;;5057381;28;20044;-43
2021/10/28 02:12:25;;;;;;;8.60;6.60;;;10.20;99.90;;;;;;5045763;28;20742;-43
2021/10/28 02:14:50;;;;;;;7.45;6.18;;;10.20;99.90;;;;;;5058535;28;20083;-43
2021/10/28 02:17:16;;;;;;;7.72;6.03;;;10.20;99.90;;;;;;5045734;28;20025;-44
2021/10/28 02:19:41;;;;;;;7.70;6.32;;;10.20;99.90;;;;;;5057583;28;20029;-43
2021/10/28 02:22:07;;;;;;;9.15;6.50;;;10.10;99.90;;;;;;5046351;28;20178;-43
2021/10/28 02:24:36;;;;;;;9.05;6.32;;;10.10;99.90;;;;;;5055910;28;20476;-43
2021/10/28 02:27:01;;;;;;;8.40;6.75;;;10.10;99.90;;;;;;5047345;28;20032;-43
2021/10/28 02:29:27;;;;;;;6.72;6.05;;;10.10;99.90;;;;;;5058104;28;20558;-42
2021/10/28 02:31:53;;;;;;;8.30;6.28;;;10.10;99.90;;;;;;5053629;28;20028;-44
2021/10/28 02:34:18;;;;;;;6.70;5.95;;;10.10;99.90;;;;;;5055051;28;20088;-43
2021/10/28 02:36:44;;;;;;;9.25;5.93;;;10.10;99.90;;;;;;5055822;28;20029;-43
2021/10/28 02:39:09;;;;;;;8.95;6.15;;;10.00;99.90;;;;;;5052789;28;20037;-43
2021/10/28 02:41:37;;;;;;;7.55;6.30;;;10.00;99.90;;;;;;5057707;28;20021;-43
2021/10/28 02:44:03;;;;;;;7.70;6.35;;;9.90;99.90;;;;;;5050695;28;20649;-43
2021/10/28 02:46:29;;;;;;;9.27;6.35;;;9.90;99.90;;;;;;5060224;28;20021;-43
2021/10/28 02:48:54;;;;;;;7.50;5.90;;;9.90;99.90;;;;;;5050165;28;20021;-43
2021/10/28 02:51:20;;;;;;;7.47;6.13;;;9.80;99.90;;;;;;5055024;28;20036;-43
2021/10/28 02:53:46;;;;;;;9.32;6.70;;;9.80;99.90;;;;;;5049048;28;20376;-43
2021/10/28 02:56:12;;;;;;;9.27;6.68;;;9.80;99.90;;;;;;5055984;28;20056;-43
2021/10/28 02:58:43;;;;;;;7.40;6.57;;;9.80;99.90;;;;;;5069336;28;20484;-43
2021/10/28 03:01:09;;;;;;;7.97;6.57;;;9.90;99.90;;;;;;5056770;28;20017;-43
2021/10/28 03:03:38;;;;;;;9.38;6.68;;;9.80;99.90;;;;;;5068288;28;20038;-43
2021/10/28 03:06:06;;;;;;;7.32;6.53;;;9.80;99.90;;;;;;5057268;28;20357;-44
2021/10/28 03:08:33;;;;;;;8.05;6.97;;;9.80;99.90;;;;;;5068886;28;20036;-43
2021/10/28 03:10:59;;;;;;;9.45;6.70;;;9.80;99.90;;;;;;5058418;28;20528;-43
2021/10/28 03:13:24;;;;;;;8.70;6.82;;;9.80;99.90;;;;;;5065771;28;20025;-43
2021/10/28 03:15:52;;;;;;;9.75;7.28;;;9.80;99.90;;;;;;5061172;28;20432;-43
2021/10/28 03:26:31;;;;;;;8.65;7.13;;;9.70;99.90;;;;;;5058819;28;20124;-42
2021/10/28 03:28:56;;;;;;;11.20;6.93;;;9.70;99.90;;;;;;5066318;28;20103;-42
2021/10/28 03:31:22;;;;;;;9.38;7.00;;;9.70;99.90;;;;;;5060317;28;20037;-44
2021/10/28 03:33:49;;;;;;;10.02;7.30;;;9.60;99.90;;;;;;5063310;28;20025;-43
2021/10/28 03:36:26;;;;;;;8.85;7.28;;;9.60;99.90;;;;;;5063314;28;20119;-44
2021/10/28 03:39:07;;;;;;;11.18;7.60;;;9.60;99.90;;;;;;5061554;28;20028;-43
2021/10/28 03:53:15;;;;;;;11.65;8.88;;;9.50;99.90;;;;;;5018140;28;20125;-43
2021/10/28 04:06:16;;;;;;;10.88;8.73;;;9.40;99.90;;;;;;5047908;28;20025;-44
2021/10/28 04:17:16;;;;;;;12.15;9.13;;;9.30;99.90;;;;;;5049082;28;20039;-42
2021/10/28 04:30:22;;;;;;;12.98;10.10;;;9.30;99.90;;;;;;5058871;28;20060;-43
2021/10/28 04:32:49;;;;;;;12.02;9.20;;;9.30;99.90;;;;;;5065483;28;20075;-43
2021/10/28 04:35:16;;;;;;;12.73;9.68;;;9.20;99.90;;;;;;5056705;28;20062;-43
2021/10/28 04:37:44;;;;;;;11.75;9.82;;;9.20;99.90;;;;;;5065123;28;20036;-42
2021/10/28 04:40:10;;;;;;;14.52;9.93;;;9.20;99.90;;;;;;5055666;28;20036;-43
2021/10/28 04:42:36;;;;;;;15.13;10.60;;;9.20;99.90;;;;;;5065326;28;20559;-43
2021/10/28 04:45:03;;;;;;;13.13;9.60;;;9.20;99.90;;;;;;5055633;28;20107;-44
2021/10/28 04:47:29;;;;;;;12.98;9.60;;;9.20;99.90;;;;;;5066640;28;20115;-43
2021/10/28 04:49:54;;;;;;;11.52;9.20;;;9.20;99.90;;;;;;5053211;28;20104;-43
2021/10/28 04:52:22;;;;;;;10.25;8.43;;;9.20;99.90;;;;;;5048945;28;20074;-44
2021/10/28 04:54:47;;;;;;;14.02;9.25;;;9.20;99.90;;;;;;5058828;28;20043;-44
2021/10/28 04:57:13;;;;;;;10.95;9.13;;;9.20;99.90;;;;;;5047477;28;20400;-43
2021/10/28 04:59:38;;;;;;;12.15;8.98;;;9.20;99.90;;;;;;5056227;28;20021;-43
2021/10/28 05:02:04;;;;;;;12.32;8.93;;;9.10;99.90;;;;;;5049404;28;20032;-43
2021/10/28 05:04:30;;;;;;;11.88;9.20;;;9.20;99.90;;;;;;5053659;28;20054;-44
2021/10/28 05:06:55;;;;;;;15.30;10.45;;;9.20;99.90;;;;;;5051571;28;20025;-42
2021/10/28 05:09:28;;;;;;;13.60;9.82;;;9.10;99.90;;;;;;5051081;28;20054;-43
2021/10/28 05:11:57;;;;;;;13.27;9.63;;;9.10;99.90;;;;;;5053559;28;20427;-43
2021/10/28 05:14:23;;;;;;;12.40;9.60;;;9.10;99.90;;;;;;5049810;28;20021;-43
2021/10/28 05:16:56;;;;;;;11.98;9.57;;;9.10;99.90;;;;;;5054833;28;20067;-43
2021/10/28 05:19:22;;;;;;;13.50;10.40;;;9.10;99.90;;;;;;5048792;28;20037;-43
2021/10/28 05:21:48;;;;;;;13.70;9.80;;;9.10;99.90;;;;;;5057135;28;20534;-43
2021/10/28 05:24:13;;;;;;;12.65;10.15;;;9.10;99.90;;;;;;5047568;28;20029;-43
2021/10/28 05:26:39;;;;;;;13.43;10.05;;;9.10;99.90;;;;;;5057166;28;20599;-43
2021/10/28 05:29:05;;;;;;;12.80;9.48;;;9.10;99.90;;;;;;5047371;28;20017;-44
2021/10/28 05:31:30;;;;;;;13.73;9.43;;;9.10;99.90;;;;;;5057473;28;20110;-44
2021/10/28 05:33:56;;;;;;;14.80;9.50;;;9.00;99.90;;;;;;5046454;28;20032;-44
2021/10/28 05:36:21;;;;;;;13.13;9.88;;;9.00;99.90;;;;;;5058262;28;20454;-43
2021/10/28 05:38:47;;;;;;;13.18;9.50;;;9.00;99.90;;;;;;5046169;28;20017;-43
2021/10/28 05:41:13;;;;;;;11.85;9.93;;;9.00;99.90;;;;;;5057943;28;20430;-43
2021/10/28 05:43:38;;;;;;;14.27;9.65;;;9.00;99.90;;;;;;5046506;28;20029;-43
2021/10/28 05:46:04;;;;;;;13.60;10.20;;;9.00;99.90;;;;;;5055143;28;20092;-44
2021/10/28 05:48:30;;;;;;;13.38;9.80;;;9.00;99.90;;;;;;5050027;28;20025;-42
2021/10/28 05:50:55;;;;;;;15.65;10.07;;;8.90;99.90;;;;;;5047588;28;20025;-43
2021/10/28 05:53:21;;;;;;;12.85;9.77;;;8.90;99.90;;;;;;5046663;28;20079;-43
2021/10/28 05:55:48;;;;;;;13.70;10.18;;;8.90;99.90;;;;;;5054376;28;20412;-43
2021/10/28 05:58:14;;;;;;;13.73;9.75;;;8.90;99.90;;;;;;5048670;28;20079;-42
2021/10/28 06:00:39;;;;;;;15.57;9.85;;;8.90;99.90;;;;;;5046430;28;20469;-43
2021/10/28 06:03:05;;;;;;;11.52;9.05;;;8.90;99.90;;;;;;5060756;28;20132;-43
2021/10/28 06:05:30;;;;;;;14.90;10.02;;;8.90;99.90;;;;;;5049723;28;20071;-44
2021/10/28 06:07:56;;;;;;;11.98;9.32;;;8.90;99.90;;;;;;5057879;28;20235;-42
2021/10/28 06:10:21;;;;;;;13.63;9.35;;;8.90;99.90;;;;;;5049496;28;20040;-43
2021/10/28 06:12:50;;;;;;;14.02;9.30;;;8.90;99.90;;;;;;5060676;28;20021;-43
2021/10/28 06:15:17;;;;;;;14.00;10.13;;;8.80;99.90;;;;;;5049995;28;20028;-43
2021/10/28 06:17:51;;;;;;;14.75;10.05;;;8.80;99.90;;;;;;5060953;28;20031;-44
2021/10/28 06:20:18;;;;;;;13.93;10.07;;;8.80;99.90;;;;;;5048886;28;20021;-43
2021/10/28 06:22:44;;;;;;;13.35;9.63;;;8.80;99.90;;;;;;5060980;28;20085;-43
2021/10/28 06:25:10;;;;;;;15.90;10.10;;;8.80;99.90;;;;;;5049256;28;20440;-43
2021/10/28 06:27:35;;;;;;;14.60;9.90;;;8.80;99.90;;;;;;5058231;28;20024;-43
2021/10/28 06:30:01;;;;;;;13.38;9.57;;;8.80;99.90;;;;;;5051445;28;20041;-43
2021/10/28 06:32:30;;;;;;;13.30;9.43;;;8.80;99.90;;;;;;5056272;28;20009;-43
2021/10/28 06:34:57;;;;;;;12.73;10.00;;;8.80;99.90;;;;;;5053493;28;20101;-43
2021/10/28 06:37:22;;;;;;;13.23;9.88;;;8.80;99.90;;;;;;5038755;28;20020;-43
2021/10/28 06:39:48;;;;;;;12.32;9.43;;;8.80;99.90;;;;;;5060825;28;20040;-44
2021/10/28 06:42:14;;;;;;;13.05;9.82;;;8.80;99.90;;;;;;5055421;28;20024;-43
2021/10/28 06:44:41;;;;;;;13.45;9.82;;;8.70;99.90;;;;;;5059491;28;20496;-43
2021/10/28 06:47:07;;;;;;;16.67;10.10;;;8.80;99.90;;;;;;5067276;28;20488;-43
2021/10/28 06:49:36;;;;;;;14.60;9.68;;;8.80;99.90;;;;;;5057699;28;20059;-43
2021/10/28 06:52:04;;;;;;;15.43;10.25;;;8.80;99.90;;;;;;5056151;28;20025;-42
2021/10/28 06:54:35;;;;;;;12.45;9.02;;;8.80;99.90;;;;;;5059455;28;20052;-43
2021/10/28 06:57:15;;;;;;;13.50;9.55;;;8.80;99.90;;;;;;5049472;28;20037;-43
2021/10/28 07:02:32;;;;;;;16.08;10.07;;;8.80;99.90;;;;;;5049653;28;20625;-44
2021/10/28 07:04:58;;;;;;;14.38;10.30;;;8.80;99.90;;;;;;5060137;28;20051;-44
2021/10/28 07:07:33;;;;;;;13.50;9.07;;;8.80;99.90;;;;;;5049221;28;20033;-44
2021/10/28 07:15:02;;;;;;;13.70;10.13;;;8.80;99.90;;;;;;5059652;28;20033;-43
2021/10/28 07:17:33;;;;;;;13.32;9.55;;;8.90;99.90;;;;;;5048581;28;20455;-43
2021/10/28 07:30:52;;;;;;;14.65;9.40;;;9.00;99.90;;;;;;5056411;28;20131;-43
2021/10/28 07:36:20;;;;;;;12.30;8.27;;;9.00;99.90;;;;;;5056047;28;20024;-43
2021/10/28 07:55:59;;;;;;;14.48;8.93;;;9.20;99.90;;;;;;5056049;28;20154;-44
2021/10/28 08:23:26;;;;;;;12.52;8.90;;;9.60;99.90;;;;;;5044821;28;20525;-44
2021/10/28 08:31:11;;;;;;;11.63;8.35;;;9.70;99.90;;;;;;5060306;28;20033;-43
2021/10/28 08:33:37;;;;;;;12.52;9.43;;;9.70;99.90;;;;;;5059407;28;20491;-42
2021/10/28 08:36:10;;;;;;;12.82;9.25;;;9.80;99.90;;;;;;5063752;28;20040;-44
2021/10/28 08:38:37;;;;;;;12.65;8.77;;;9.80;99.90;;;;;;5059243;28;20067;-43
2021/10/28 08:41:06;;;;;;;12.85;8.82;;;9.90;99.90;;;;;;5064417;28;20028;-43
2021/10/28 08:43:35;;;;;;;11.57;8.82;;;9.90;99.90;;;;;;5056659;28;20160;-44
2021/10/28 08:46:01;;;;;;;14.18;9.82;;;9.90;99.90;;;;;;5065753;28;20017;-43
2021/10/28 08:48:29;;;;;;;13.38;9.15;;;10.00;99.90;;;;;;5054664;28;20043;-33
2021/10/28 08:56:39;;;;;;;14.52;9.30;;;10.10;99.90;;;;;;5056047;28;20072;-35
2021/10/28 09:24:45;;;;;;;13.90;9.75;;;10.60;99.90;;;;;;5056791;28;20051;-33
2021/10/28 09:27:14;;;;;;;13.88;9.52;;;10.70;99.90;;;;;;5048087;28;20112;-33
2021/10/28 09:30:00;;;;;;;11.85;8.52;;;10.80;99.90;;;;;;5056101;28;20017;-35
2021/10/28 09:32:31;;;;;;;13.93;8.48;;;10.80;99.90;;;;;;5047597;28;20048;-33
2021/10/28 09:52:03;;;;;;;12.80;8.68;;;11.20;99.90;;;;;;5053612;28;20037;-34
2021/10/28 09:54:48;;;;;;;10.95;7.55;;;11.20;99.90;;;;;;5046474;28;20115;-33
2021/10/28 09:57:55;;;;;;;11.88;8.57;;;11.30;99.90;;;;;;5039309;28;20052;-34
2021/10/28 10:00:17;;;;;;;11.57;8.05;;;11.30;99.90;;;;;;5057666;28;20040;-34
2021/10/28 10:02:50;;;;;;;12.82;9.35;;;11.40;99.90;;;;;;5046102;28;20369;-34
2021/10/28 10:07:43;;;;;;;12.15;8.80;;;11.50;99.90;;;;;;5037397;28;20011;-33
2021/10/28 10:10:08;;;;;;;12.52;7.35;;;11.50;99.90;;;;;;5052400;28;20103;-33
2021/10/28 10:12:39;;;;;;;10.38;7.90;;;11.60;99.90;;;;;;5046717;28;20033;-34
2021/10/28 10:15:06;;;;;;;12.82;8.45;;;11.60;99.90;;;;;;5054850;28;20651;-33
2021/10/28 10:17:32;;;;;;;9.57;7.07;;;11.70;99.90;;;;;;5048889;28;20025;-34
2021/10/28 10:20:00;;;;;;;10.30;7.35;;;11.70;99.90;;;;;;5052095;28;20052;-33
2021/10/28 11:03:08;;;;;;;10.70;7.82;;;12.00;99.90;;;;;;5027279;28;20045;-34
2021/10/28 11:06:14;;;;;;;11.30;8.13;;;12.60;99.90;;;;;;5069475;28;20044;-33
2021/10/28 11:21:14;;;;;;;11.90;8.25;;;12.90;99.90;;;;;;5053576;28;20067;-34
2021/10/28 11:26:46;;;;;;;10.20;8.27;;;13.10;99.90;;;;;;5050060;28;20051;-35
2021/10/28 12:22:20;;;;;;;12.23;8.82;;;14.30;99.90;;;;;;5064581;28;20094;-43
2021/10/28 12:25:12;;;;;;;13.80;9.45;;;14.30;99.90;;;;;;5054239;28;20052;-44
2021/10/28 13:04:09;;;;;;;12.43;9.85;;;14.90;99.90;;;;;;5046644;28;20055;-43
2021/10/28 13:34:59;;;;;;;9.27;7.13;;;15.40;99.90;;;;;;5062823;28;20044;-44
2021/10/28 13:49:58;;;;;;;9.02;6.43;;;15.60;99.90;;;;;;5064674;28;20044;-43
2021/10/28 14:25:27;;;;;;;7.70;5.97;;;15.70;99.90;;;;;;5048857;28;20048;-43
2021/10/28 14:33:18;;;;;;;6.95;5.53;;;15.80;99.90;;;;;;5067034;28;20111;-43
2021/10/28 14:38:24;;;;;;;6.93;5.43;;;15.80;99.90;;;;;;5066181;28;20029;-43
2021/10/28 15:03:07;;;;;;;7.82;4.75;;;15.70;99.90;;;;;;5049726;28;20078;-44
2021/10/28 15:30:34;;;;;;;6.35;4.68;;;15.40;99.90;;;;;;5037214;28;20058;-44
2021/10/28 15:43:44;;;;;;;5.32;4.63;;;15.10;99.90;;;;;;5062161;28;20037;-44
2021/10/28 15:49:43;;;;;;;5.70;4.57;;;15.10;99.90;;;;;;5067514;28;20098;-44
2021/10/28 15:54:37;;;;;;;5.35;4.40;;;14.90;99.90;;;;;;5067963;28;20036;-44
2021/10/28 16:21:59;;;;;;;5.38;4.10;;;14.40;99.90;;;;;;5062853;28;20047;-44
2021/10/28 16:24:30;;;;;;;5.60;4.53;;;14.40;99.90;;;;;;5060225;28;20051;-43
2021/10/28 16:26:57;;;;;;;4.82;4.32;;;14.30;99.90;;;;;;5062156;28;20428;-44
2021/10/28 16:29:23;;;;;;;6.43;4.60;;;14.20;99.90;;;;;;5059837;28;20349;-43
2021/10/28 16:31:49;;;;;;;6.97;4.70;;;14.10;99.90;;;;;;5064470;28;20021;-44
2021/10/28 16:34:16;;;;;;;6.20;4.90;;;14.10;99.90;;;;;;5057163;28;20432;-43
2021/10/28 16:36:43;;;;;;;5.32;4.72;;;14.00;99.90;;;;;;5065063;28;20183;-43
2021/10/28 16:39:12;;;;;;;5.93;4.60;;;14.00;99.90;;;;;;5055606;28;20027;-43
2021/10/28 16:41:39;;;;;;;4.70;3.88;;;13.90;99.90;;;;;;5065454;28;20032;-43
2021/10/28 16:44:05;;;;;;;5.03;4.07;;;13.90;99.90;;;;;;5055972;28;20368;-42
2021/10/28 16:46:31;;;;;;;4.90;4.40;;;13.80;99.90;;;;;;5065034;28;20029;-43
2021/10/28 16:48:57;;;;;;;5.50;4.38;;;13.80;99.90;;;;;;5054319;28;20042;-43
2021/10/28 16:51:23;;;;;;;6.30;4.43;;;13.70;99.90;;;;;;5065507;28;20128;-44
2021/10/28 16:53:52;;;;;;;6.60;4.40;;;13.60;99.90;;;;;;5053698;28;20539;-44
2021/10/28 16:56:17;;;;;;;9.00;4.90;;;13.50;99.90;;;;;;5066415;28;20044;-43
2021/10/28 16:58:46;;;;;;;6.45;5.30;;;13.50;99.90;;;;;;5055085;28;20468;-44
2021/10/28 17:01:12;;;;;;;5.78;4.82;;;13.50;99.90;;;;;;5065849;28;20063;-43
2021/10/28 17:03:38;;;;;;;5.68;4.40;;;13.40;99.90;;;;;;5057368;28;20028;-44
2021/10/28 17:06:04;;;;;;;6.60;4.63;;;13.40;99.90;;;;;;5062464;28;20081;-43
2021/10/28 17:08:31;;;;;;;6.00;4.80;;;13.30;99.90;;;;;;5059366;28;20035;-43
2021/10/28 17:10:58;;;;;;;7.20;4.90;;;13.30;99.90;;;;;;5060635;28;20035;-44
2021/10/28 17:13:24;;;;;;;5.15;4.65;;;13.30;99.90;;;;;;5061636;28;20017;-44
2021/10/28 17:15:50;;;;;;;6.25;4.80;;;13.30;99.90;;;;;;5058559;28;20031;-44
2021/10/28 17:18:15;;;;;;;5.90;4.95;;;13.30;99.90;;;;;;5064747;28;20605;-44
2021/10/28 17:20:41;;;;;;;5.35;4.78;;;13.30;99.90;;;;;;5054223;28;20028;-44
2021/10/28 17:23:12;;;;;;;4.88;4.38;;;13.20;99.90;;;;;;5064183;28;20036;-43
2021/10/28 17:25:39;;;;;;;5.82;4.55;;;13.20;99.90;;;;;;5055235;28;20131;-44
2021/10/28 17:28:07;;;;;;;4.93;4.43;;;13.20;99.90;;;;;;5064591;28;20052;-43
2021/10/28 17:30:33;;;;;;;5.93;4.78;;;13.20;99.90;;;;;;5054871;28;20077;-44
2021/10/28 17:32:58;;;;;;;7.35;5.45;;;13.10;99.90;;;;;;5066640;28;20426;-43
2021/10/28 17:35:24;;;;;;;5.78;5.18;;;13.10;99.90;;;;;;5052180;28;20025;-44
2021/10/28 17:37:53;;;;;;;7.22;5.05;;;13.10;99.90;;;;;;5065328;28;20087;-44
2021/10/28 17:40:18;;;;;;;5.70;5.10;;;13.10;99.90;;;;;;5053609;28;20047;-44
2021/10/28 17:42:45;;;;;;;7.57;5.63;;;13.00;99.90;;;;;;5065196;28;20485;-43
2021/10/28 17:45:12;;;;;;;8.93;4.85;;;13.00;99.90;;;;;;5055456;28;20048;-42
2021/10/28 17:47:39;;;;;;;6.20;5.45;;;13.00;99.90;;;;;;5057345;28;20024;-43
2021/10/28 17:50:06;;;;;;;6.13;5.07;;;13.00;99.90;;;;;;5053711;28;20583;-42
2021/10/28 17:52:32;;;;;;;7.05;4.78;;;12.90;99.90;;;;;;5060931;28;20032;-42
2021/10/28 17:55:00;;;;;;;6.78;5.38;;;12.90;99.90;;;;;;5059724;28;20120;-44
2021/10/28 17:57:25;;;;;;;7.57;5.32;;;12.90;99.90;;;;;;5061975;28;20039;-43
2021/10/28 17:59:51;;;;;;;8.57;6.20;;;12.90;99.90;;;;;;5063660;28;20477;-43
2021/10/28 18:02:17;;;;;;;7.88;5.72;;;12.90;99.90;;;;;;5061503;28;20025;-44
2021/10/28 18:04:43;;;;;;;7.90;6.20;;;12.90;99.90;;;;;;5053169;28;20039;-43
2021/10/28 18:07:09;;;;;;;6.97;5.70;;;12.80;99.90;;;;;;5063524;28;20132;-44
2021/10/28 18:09:37;;;;;;;7.28;5.75;;;12.80;99.90;;;;;;5053562;28;20032;-43
2021/10/28 18:12:02;;;;;;;7.60;5.90;;;12.80;99.90;;;;;;5063719;28;20113;-43
2021/10/28 18:14:31;;;;;;;7.78;6.13;;;12.80;99.90;;;;;;5052308;28;20116;-42
2021/10/28 18:16:59;;;;;;;8.02;6.80;;;12.80;99.90;;;;;;5064527;28;20028;-44
2021/10/28 18:19:25;;;;;;;7.82;6.07;;;12.80;99.90;;;;;;5052151;28;20156;-44
2021/10/28 18:21:55;;;;;;;8.68;6.20;;;12.80;99.90;;;;;;5065092;28;20115;-43
2021/10/28 18:24:25;;;;;;;7.82;6.22;;;12.80;99.90;;;;;;5052234;28;20044;-44
2021/10/28 18:26:51;;;;;;;7.10;5.78;;;12.80;99.90;;;;;;5064921;28;20037;-44
2021/10/28 18:29:18;;;;;;;6.72;6.00;;;12.70;99.90;;;;;;5051789;28;20392;-44
2021/10/28 18:31:44;;;;;;;11.60;6.78;;;12.80;99.90;;;;;;5061435;28;20070;-43
2021/10/28 18:34:10;;;;;;;8.57;6.57;;;12.70;99.90;;;;;;5054335;28;20431;-43
2021/10/28 18:36:36;;;;;;;8.57;6.30;;;12.70;99.90;;;;;;5059856;28;20047;-43
2021/10/28 18:39:05;;;;;;;9.07;6.57;;;12.70;99.90;;;;;;5056580;28;20017;-43
2021/10/28 18:41:32;;;;;;;7.75;6.35;;;12.70;99.90;;;;;;5057770;28;20040;-42
2021/10/28 18:43:57;;;;;;;8.35;6.53;;;12.70;99.90;;;;;;5055595;28;20148;-44
2021/10/28 18:46:23;;;;;;;10.30;7.15;;;12.60;99.90;;;;;;5053538;28;20548;-43
2021/10/28 18:48:56;;;;;;;8.60;6.68;;;12.60;99.90;;;;;;5060697;28;20032;-44
2021/10/28 18:51:21;;;;;;;9.68;6.72;;;12.60;99.90;;;;;;5053172;28;20107;-44
2021/10/28 18:53:49;;;;;;;6.78;5.88;;;12.60;99.90;;;;;;5051353;28;20773;-43
2021/10/28 18:56:15;;;;;;;9.07;6.40;;;12.60;99.90;;;;;;5057364;28;20672;-43
2021/10/28 18:58:43;;;;;;;7.50;6.20;;;12.50;99.90;;;;;;5058870;28;20548;-43
2021/10/28 19:01:09;;;;;;;8.05;6.40;;;12.50;99.90;;;;;;5070933;28;20048;-43
2021/10/28 19:03:36;;;;;;;9.43;7.00;;;12.50;99.90;;;;;;5059215;28;20035;-44
2021/10/28 19:06:03;;;;;;;9.70;7.28;;;12.50;99.90;;;;;;5071090;28;20063;-43
2021/10/28 19:08:28;;;;;;;8.80;6.45;;;12.50;99.90;;;;;;5056474;28;20035;-44
2021/10/28 19:10:54;;;;;;;10.00;6.90;;;12.50;99.90;;;;;;5068475;28;20029;-43
2021/10/28 19:13:19;;;;;;;10.52;6.93;;;12.40;99.90;;;;;;5055499;28;20013;-45
2021/10/28 19:15:45;;;;;;;7.72;6.47;;;12.40;99.90;;;;;;5067200;28;20043;-43
2021/10/28 19:18:11;;;;;;;8.25;6.32;;;12.40;99.90;;;;;;5058598;28;20499;-43
2021/10/28 19:20:40;;;;;;;9.02;7.13;;;12.30;99.90;;;;;;5064451;28;20020;-43
2021/10/28 19:23:07;;;;;;;9.10;7.38;;;12.30;99.90;;;;;;5060280;28;20021;-44
2021/10/28 19:25:37;;;;;;;12.02;8.02;;;12.30;99.90;;;;;;5062715;28;20535;-44
2021/10/28 19:28:03;;;;;;;8.15;6.88;;;12.30;99.90;;;;;;5061153;28;20563;-43
2021/10/28 19:30:32;;;;;;;9.02;7.15;;;12.30;99.90;;;;;;5060220;28;20039;-43
2021/10/28 19:33:02;;;;;;;9.85;7.80;;;12.20;99.90;;;;;;5064546;28;20025;-43
2021/10/28 19:35:31;;;;;;;10.23;7.35;;;12.20;99.90;;;;;;5058384;28;20103;-43
2021/10/28 19:41:01;;;;;;;9.88;7.70;;;12.20;99.90;;;;;;5056699;28;20658;-44
2021/10/28 19:48:30;;;;;;;9.40;7.85;;;12.20;99.90;;;;;;5062658;28;20051;-43
2021/10/28 19:50:57;;;;;;;11.75;8.07;;;12.10;99.90;;;;;;5058559;28;20051;-43
2021/10/28 19:53:23;;;;;;;10.25;8.32;;;12.10;99.90;;;;;;5051236;28;20074;-43
2021/10/28 19:55:50;;;;;;;12.07;8.38;;;12.10;99.90;;;;;;5057497;28;20598;-45
2021/10/28 19:58:22;;;;;;;10.45;8.50;;;12.10;99.90;;;;;;5048731;28;20017;-43
2021/10/28 20:01:00;;;;;;;8.15;7.13;;;12.10;99.90;;;;;;5062472;28;20404;-45
2021/10/28 20:03:40;;;;;;;10.32;7.82;;;12.00;99.90;;;;;;5044543;28;20117;-44
2021/10/28 20:22:03;;;;;;;10.85;8.80;;;11.90;99.90;;;;;;5059275;28;20504;-44
2021/10/28 20:24:28;;;;;;;11.20;8.90;;;11.80;99.90;;;;;;5064705;28;20040;-43
2021/10/28 20:26:54;;;;;;;11.68;8.45;;;11.80;99.90;;;;;;5056473;28;20028;-44
2021/10/28 20:29:19;;;;;;;9.00;7.75;;;11.80;99.90;;;;;;5065991;28;20095;-43
2021/10/28 20:31:45;;;;;;;13.35;8.52;;;11.80;99.90;;;;;;5055289;28;20468;-44
2021/10/28 20:34:14;;;;;;;10.68;8.52;;;11.70;99.90;;;;;;5067386;28;20101;-44
2021/10/28 20:39:28;;;;;;;11.20;8.18;;;11.70;99.90;;;;;;5066560;28;20094;-43
2021/10/28 20:41:54;;;;;;;10.45;7.88;;;11.70;99.90;;;;;;5055666;28;20021;-43
2021/10/28 20:44:20;;;;;;;12.10;8.95;;;11.70;99.90;;;;;;5066815;28;20035;-44
2021/10/28 20:46:48;;;;;;;11.60;8.95;;;11.60;99.90;;;;;;5053824;28;20372;-43
2021/10/28 20:49:14;;;;;;;12.13;8.60;;;11.60;99.90;;;;;;5067307;28;20472;-44
2021/10/28 20:51:40;;;;;;;11.20;8.57;;;11.60;99.90;;;;;;5053719;28;20033;-43
2021/10/28 20:54:05;;;;;;;10.07;8.05;;;11.50;99.90;;;;;;5047287;28;20024;-43
2021/10/28 20:56:32;;;;;;;12.07;9.18;;;11.50;99.90;;;;;;5056240;28;20083;-44
2021/10/28 20:58:57;;;;;;;10.68;8.88;;;11.50;99.90;;;;;;5048730;28;20025;-43
2021/10/28 21:01:23;;;;;;;10.02;8.60;;;11.50;99.90;;;;;;5053836;28;20082;-42
2021/10/28 21:03:50;;;;;;;11.00;9.00;;;11.50;99.90;;;;;;5052063;28;20086;-43
2021/10/28 21:06:16;;;;;;;13.05;9.10;;;11.40;99.90;;;;;;5050948;28;20070;-43
2021/10/28 21:08:41;;;;;;;11.32;9.15;;;11.40;99.90;;;;;;5053667;28;20467;-44
2021/10/28 21:11:07;;;;;;;11.82;9.40;;;11.40;99.90;;;;;;5049230;28;20025;-44
2021/10/28 21:13:33;;;;;;;11.70;9.32;;;11.40;99.90;;;;;;5055910;28;20094;-43
2021/10/28 21:16:02;;;;;;;12.70;10.02;;;11.40;99.90;;;;;;5047430;28;20032;-44
2021/10/28 21:18:30;;;;;;;10.35;8.70;;;11.40;99.90;;;;;;5057441;28;20354;-43
2021/10/28 21:20:56;;;;;;;11.52;8.57;;;11.30;99.90;;;;;;5047110;28;20025;-43
2021/10/28 21:23:21;;;;;;;13.00;10.23;;;11.30;99.90;;;;;;5057870;28;20033;-43
2021/10/28 21:25:47;;;;;;;12.65;9.68;;;11.30;99.90;;;;;;5046052;28;20480;-44
2021/10/28 21:28:14;;;;;;;12.80;10.25;;;11.30;99.90;;;;;;5059101;28;20029;-43
2021/10/28 21:30:41;;;;;;;12.35;10.38;;;11.20;99.90;;;;;;5045940;28;20108;-43
2021/10/28 21:33:07;;;;;;;12.85;9.63;;;11.20;99.90;;;;;;5057773;28;20031;-44